Strona główna
METAR-TAF:

METAR-TAF

Lotnisko :

Washington, Indiana, Stany Zjednoczone

Szerokość geograficzna: 38-42-02N, Długość geograficzna: 087-07-47W, wysokość: 144 m

Aktualna obserwacja pogody

Raport powstał 23 minut temu, godzina 19:15 UTC
Wiatr 4 kt od południowo-południowy zachód
Temperatura 32°C
Wilgotność 63%
Ciśnienie 1014 hPa
Widzialność: 16.1 km
Rozproszone chmury na wysokości 3000 ft

METAR: KDCY 181915Z AUTO 21004KT 10SM SCT030 32/24 A2995 RMK AO2 T03190244

czas: 15:38 (19:38 UTC)


TAF: brakujący

Obserwacja i prognoza pogody dla ponad 4000 lotnisk (raport METAR i TAF).

Dostępne stacje oznaczono żółtymi i czerwonymi punktami na mapie.

Najedź kursorem aby zobaczyć nazwę stacji.

Kliknij aby zobaczyć obserwacje i prognozy pogody.

Aby zmienić mapę: kliknij na zielony przycisk z czarnym krzyżykiem, aby powiększyć; na zielony przycisk z myślnikiem, aby pomniejszyć; na zielone strzałki, aby przejść do map sąsiednich.


METAR-TAF: